Archival Weather

Snohomish County (Paine Fld)

Everett, Washington (KPAE)

Report from: Friday, November 10, 2023 1:53 AM PST
Current time: Monday, June 17, 2024 1:12 AM PDT

Current weather – Weather history – Daily summaries
Weather forecast

Temperature8.3°C (46.9°F)
Wind chill5.6°C (42.1°F)
Dew point5.6°C (42.1°F)
Winds 9 kts (4.6 m/s, 10.4 mph) South (190°)
Visibility10 mi. (16.1 km)
Clouds Ceiling: Overcast 1,400 ft. (427 m)
Altimeter30.07 in.Hg (1018 mB)
Relative humidity83 %
Density altitude-853 ft. (-260 m)
Sea-level pressure101.9 kPa (1019 mB, 30.08 in.Hg)
Remarks Fully automated report
Automated weather observing station with precipitation discriminator
Flight conditions Marginal Visual Meteorological Conditions
Raw dataKPAE 100953Z AUTO 19009KT 10SM OVC014 08/06 A3007 RMK AO2 SLP186 T00830056
An error has occurred. This application may no longer respond until reloaded. Reload 🗙